Kingston, WA

2:00 PM PST on November 27, 2014 (GMT -0800)
KWAKINGS19 | Change Station
CLOSE
Current Station
Personal Weather Station
Location: Kingston, WA
Elevation: 200 ft
Nearby Weather Stations
Active Advisory: Areal Flood Watch Active Notice: Record Report

Elev 200 ft 47.79 °N, 122.55 °W | Updated 5 seconds ago

Overcast
Overcast
55.2 °F
Feels Like 55.2 °F
N
8.1
Wind Variable Wind from South
Gusts 8.1 mph

Today
High -- | Low -- °F
--% Chance of Precip.
Yesterday
High -- | Low -- °F
Precip. -- in
7:33 AM 4:22 PM
Waxing Crescent, 33% visible
Pressure 29.75 in
Visibility 10.0 miles
Clouds Mostly Cloudy 1400 ft
Overcast 2100 ft
Dew Point 53 °F
Humidity 92%
Rainfall 0.00 in
Snow Depth Not available.
UV 0 out of 12
Pollen .10 out of 12
Air Quality Not available.
Flu Activity Not available.
METAR KPAE 272153Z 19025G32KT 10SM BKN014 OVC021 13/10 A2976 RMK AO2 PK WND 19036/2134 SLP075 T01280100

More Conditions Fewer Conditions

Pressure 29.75 in
Visibility 10.0 miles
Clouds Mostly Cloudy 1400 ft
Overcast 2100 ft
Dew Point 53 °F
Humidity 92%
Rainfall 0.00 in
Snow Depth Not available.
UV 0 out of 12
Pollen .10 out of 12
Air Quality Not available.
Flu Activity Not available.
METAR KPAE 272153Z 19025G32KT 10SM BKN014 OVC021 13/10 A2976 RMK AO2 PK WND 19036/2134 SLP075 T01280100

More Conditions Fewer Conditions

10-Day Weather Forecast

Almanac

Astronomy

Nov. 27, 2014 Rise Set
Actual Time
Civil Twilight
Nautical Twilight
Astronomical Twilight
Moon
Length of Visible Light
Length of Day
Tomorrow will be .
, % of the Moon is Illuminated

Today's Extremes

State Highs State Lows

Community

WunderPhotos

Upload Photos

1,774,117 photos uploaded!

WunderBlogs® & News

Nearby

Air Quality

  Air Quality AQ Index Pollutant
Not available.

Snow Depth

Station Depth Elevation

Earthquake Activity

City Distance Mag. Time & Date
Minimum magnitude displayed is 2.5.

Coastal Water Temperatures

Place Temperature

Nearby Weather Stations